Time;durP1;ratioP1;P1;durP2;ratioP2;P2;SDS_P1;SDS_P2;PMS_P1;PMS_P2;Temp;Humidity;BMP_temperature;BMP_pressure;BME280_temperature;BME280_humidity;BME280_pressure;Samples;Min_cycle;Max_cycle;Signal;HPM_P1;HPM_P2
2023/08/19 00:01:54;;;;;;;8.20;0.98;;;;;;;15.75;100.00;98690.13;5053933;28;20498;-40
2023/08/19 00:04:21;;;;;;;0.00;0.00;;;;;;;15.72;100.00;98677.84;5054768;28;20048;-41
2023/08/19 00:06:48;;;;;;;0.63;0.63;;;;;;;15.72;100.00;98694.56;5054758;28;20065;-40
2023/08/19 00:09:15;;;;;;;0.00;0.00;;;;;;;15.71;100.00;98678.25;5054567;28;20399;-41
2023/08/19 00:11:42;;;;;;;0.00;0.00;;;;;;;15.71;100.00;98658.72;5057174;28;20547;-41
2023/08/19 00:14:09;;;;;;;0.00;0.00;;;;;;;15.70;100.00;98643.22;5052431;28;20048;-40
2023/08/19 00:16:36;;;;;;;0.35;0.35;;;;;;;15.67;100.00;98641.28;5034837;28;20045;-44
2023/08/19 00:19:04;;;;;;;0.00;0.00;;;;;;;15.67;100.00;98596.66;5051429;28;20173;-41
2023/08/19 00:21:33;;;;;;;0.10;0.10;;;;;;;15.65;100.00;98594.28;5052533;28;20049;-40
2023/08/19 00:24:05;;;;;;;0.73;0.67;;;;;;;15.62;100.00;98572.81;5052680;28;20083;-41
2023/08/19 00:26:32;;;;;;;1.65;1.45;;;;;;;15.61;100.00;98562.09;5051005;28;20052;-41
2023/08/19 00:29:01;;;;;;;0.00;0.00;;;;;;;15.60;100.00;98568.88;5049792;28;20049;-41
2023/08/19 00:31:28;;;;;;;0.47;0.47;;;;;;;15.59;100.00;98533.88;5053563;28;20048;-41
2023/08/19 00:33:55;;;;;;;55.10;9.82;;;;;;;15.58;100.00;98509.97;5052066;28;20095;-41
2023/08/19 00:36:25;;;;;;;51.95;10.70;;;;;;;15.53;100.00;98502.91;5036416;28;20041;-41
2023/08/19 00:38:53;;;;;;;69.50;9.45;;;;;;;15.52;100.00;98506.13;5053984;28;20048;-42
2023/08/19 00:41:21;;;;;;;52.33;8.60;;;;;;;15.48;100.00;98492.28;5054311;28;20060;-42
2023/08/19 00:43:48;;;;;;;53.05;8.52;;;;;;;15.47;100.00;98465.59;5054140;28;20063;-42
2023/08/19 00:50:22;;;;;;;61.35;10.07;;;;;;;15.37;100.00;98410.03;5042779;28;20033;-42
2023/08/19 00:52:50;;;;;;;59.72;10.38;;;;;;;15.37;100.00;98393.31;5041737;28;20410;-41
2023/08/19 00:55:55;;;;;;;68.05;13.65;;;;;;;15.35;100.00;98370.66;5035816;28;20088;-42
2023/08/19 00:58:22;;;;;;;56.83;11.15;;;;;;;15.33;100.00;98353.59;5051596;28;20564;-41
2023/08/19 01:00:49;;;;;;;48.50;8.90;;;;;;;15.30;100.00;98323.78;5053801;28;20499;-42
2023/08/19 01:03:16;;;;;;;57.92;11.65;;;;;;;15.29;100.00;98286.75;5036477;28;20060;-41
2023/08/19 01:06:17;;;;;;;60.65;11.13;;;;;;;15.27;100.00;98282.84;5053695;28;20065;-41
2023/08/19 01:08:59;;;;;;;70.57;12.07;;;;;;;15.24;100.00;98271.34;5014427;28;20102;-41
2023/08/19 01:11:47;;;;;;;77.70;14.43;;;;;;;15.22;100.00;98237.53;5053155;28;20052;-40
2023/08/19 01:14:55;;;;;;;67.00;11.45;;;;;;;15.20;100.00;98209.31;5053525;28;20052;-43
2023/08/19 01:17:27;;;;;;;79.10;10.52;;;;;;;15.19;100.00;98204.97;5053776;28;20056;-40
2023/08/19 01:19:56;;;;;;;;;;;;;;;15.18;100.00;98195.03;5054242;28;20120;-41
2023/08/19 01:22:49;;;;;;;48.15;11.27;;;;;;;15.17;100.00;98167.59;5053591;28;20023;-41
2023/08/19 01:25:18;;;;;;;63.20;10.63;;;;;;;15.16;100.00;98155.69;5042375;28;20057;-40
2023/08/19 01:27:45;;;;;;;66.22;10.55;;;;;;;15.15;100.00;98134.59;5051671;28;20607;-41
2023/08/19 01:30:15;;;;;;;50.85;8.38;;;;;;;15.15;100.00;98120.66;5043398;28;20144;-41
2023/08/19 01:32:43;;;;;;;53.80;11.07;;;;;;;15.15;100.00;98125.44;5053018;28;20118;-41
2023/08/19 01:35:13;;;;;;;76.63;12.20;;;;;;;15.16;100.00;98111.09;5053286;28;20049;-40
2023/08/19 01:37:57;;;;;;;63.58;9.05;;;;;;;15.17;100.00;98129.38;5053682;28;20045;-41
2023/08/19 01:40:27;;;;;;;53.45;10.02;;;;;;;15.17;100.00;98123.00;5036618;28;20049;-41
2023/08/19 01:42:55;;;;;;;35.75;6.70;;;;;;;15.17;100.00;98089.56;5035550;28;20632;-40
2023/08/19 01:45:22;;;;;;;34.72;8.10;;;;;;;15.18;100.00;98105.84;5046031;28;20053;-40
2023/08/19 01:47:53;;;;;;;28.45;7.55;;;;;;;15.20;100.00;98077.53;5019004;28;20045;-41
2023/08/19 01:50:20;;;;;;;44.53;6.73;;;;;;;15.20;100.00;98041.31;5052783;28;20037;-40
2023/08/19 01:52:48;;;;;;;40.67;6.80;;;;;;;15.20;100.00;98061.59;5052916;28;20487;-41
2023/08/19 01:55:16;;;;;;;42.53;8.30;;;;;;;15.22;100.00;98075.13;5053080;28;20095;-42
2023/08/19 01:57:42;;;;;;;44.05;7.13;;;;;;;15.21;100.00;98060.38;5050935;28;20055;-41
2023/08/19 02:00:10;;;;;;;43.67;7.65;;;;;;;15.22;100.00;98070.28;5052727;28;20049;-42
2023/08/19 02:02:37;;;;;;;55.75;8.68;;;;;;;15.23;100.00;98088.59;5052550;28;20499;-41
2023/08/19 02:05:04;;;;;;;53.58;9.68;;;;;;;15.23;100.00;98074.66;5052348;28;20056;-40
2023/08/19 02:07:32;;;;;;;57.13;10.32;;;;;;;15.25;100.00;98080.56;5052588;28;20055;-40
2023/08/19 02:09:59;;;;;;;40.30;7.20;;;;;;;15.27;100.00;98091.28;5034838;28;20148;-40
2023/08/19 02:12:26;;;;;;;40.33;7.90;;;;;;;15.31;100.00;98077.25;5053209;28;20144;-41
2023/08/19 02:14:52;;;;;;;44.13;7.43;;;;;;;15.34;100.00;98107.03;5034404;28;20575;-41
2023/08/19 02:17:19;;;;;;;26.42;5.72;;;;;;;15.36;100.00;98105.34;5034606;28;20040;-40
2023/08/19 02:19:46;;;;;;;25.38;6.10;;;;;;;15.40;100.00;98122.78;5051515;28;20194;-41
2023/08/19 02:22:13;;;;;;;22.35;5.07;;;;;;;15.42;100.00;98120.34;5052726;28;20037;-40
2023/08/19 02:24:40;;;;;;;28.65;4.78;;;;;;;15.45;100.00;98122.25;5034152;28;20136;-40
2023/08/19 02:27:08;;;;;;;22.70;5.60;;;;;;;15.48;100.00;98132.53;5051427;28;20425;-41
2023/08/19 02:29:35;;;;;;;19.23;4.70;;;;;;;15.51;100.00;98142.03;5034295;28;20041;-41
2023/08/19 02:32:05;;;;;;;10.93;1.92;;;;;;;15.54;100.00;98146.72;5052463;28;20051;-41
2023/08/19 02:34:32;;;;;;;11.48;1.25;;;;;;;15.57;100.00;98174.50;5034083;28;20049;-41
2023/08/19 02:36:59;;;;;;;8.57;1.17;;;;;;;15.61;100.00;98196.72;5051996;28;20041;-41
2023/08/19 02:39:26;;;;;;;3.45;0.88;;;;;;;15.62;100.00;98215.78;5051755;28;20041;-42
2023/08/19 02:41:53;;;;;;;9.77;1.65;;;;;;;15.65;100.00;98222.50;5050705;28;20080;-41
2023/08/19 02:44:20;;;;;;;1.50;0.45;;;;;;;15.65;100.00;98242.81;5052431;28;20108;-42
2023/08/19 02:46:48;;;;;;;1.67;0.30;;;;;;;15.67;100.00;98254.31;5051525;28;20045;-41
2023/08/19 02:49:15;;;;;;;1.23;0.20;;;;;;;15.69;100.00;98265.03;5051830;28;20049;-42
2023/08/19 02:51:43;;;;;;;0.65;0.25;;;;;;;15.70;100.00;98275.75;5051845;28;20431;-42
2023/08/19 02:54:12;;;;;;;2.20;0.25;;;;;;;15.72;100.00;98292.06;5051714;28;20581;-40
2023/08/19 02:56:40;;;;;;;0.30;0.17;;;;;;;15.71;100.00;98296.84;5050766;28;20053;-41
2023/08/19 02:59:08;;;;;;;0.22;0.20;;;;;;;15.73;100.00;98310.34;5051179;28;20045;-42
2023/08/19 03:01:35;;;;;;;3.55;0.32;;;;;;;15.74;100.00;98325.88;5069671;22;20186;-40
2023/08/19 03:04:02;;;;;;;0.08;0.05;;;;;;;15.74;100.00;98323.88;5049790;28;20045;-40
2023/08/19 03:06:29;;;;;;;1.48;0.08;;;;;;;15.77;100.00;98352.91;5050770;28;20128;-40
2023/08/19 03:08:57;;;;;;;0.30;0.10;;;;;;;15.78;100.00;98357.25;5051550;28;20069;-40
2023/08/19 03:11:24;;;;;;;2.65;0.10;;;;;;;15.78;100.00;98363.63;5051839;28;20045;-41
2023/08/19 03:13:51;;;;;;;0.15;0.10;;;;;;;15.77;100.00;98362.06;5051183;28;20049;-40
2023/08/19 03:16:17;;;;;;;0.90;0.10;;;;;;;15.77;100.00;98383.59;5051293;28;20088;-41
2023/08/19 03:18:44;;;;;;;1.05;0.20;;;;;;;15.77;100.00;98406.69;5051753;28;20041;-40
2023/08/19 03:21:11;;;;;;;0.57;0.17;;;;;;;15.73;100.00;98411.56;5051332;28;20041;-41
2023/08/19 03:23:38;;;;;;;3.10;0.28;;;;;;;15.72;100.00;98421.19;5051292;28;20128;-40
2023/08/19 03:26:05;;;;;;;2.28;1.75;;;;;;;15.74;100.00;98434.69;5049477;28;20102;-40
2023/08/19 03:28:32;;;;;;;1.55;0.47;;;;;;;15.74;100.00;98440.25;5051201;28;20033;-40
2023/08/19 03:30:59;;;;;;;3.67;0.40;;;;;;;15.75;100.00;98453.00;5050998;28;20132;-41
2023/08/19 03:33:26;;;;;;;2.65;0.22;;;;;;;15.75;100.00;98464.16;5051429;28;20083;-41
2023/08/19 03:35:58;;;;;;;2.90;0.60;;;;;;;15.74;100.00;98473.72;5051621;28;20115;-40
2023/08/19 03:38:25;;;;;;;3.40;0.43;;;;;;;15.73;100.00;98477.72;5033310;28;20069;-41
2023/08/19 03:40:52;;;;;;;2.75;0.43;;;;;;;15.73;100.00;98488.88;5051018;28;20107;-40
2023/08/19 03:43:19;;;;;;;1.27;0.52;;;;;;;15.74;100.00;98496.84;5051034;28;20041;-41
2023/08/19 03:45:46;;;;;;;1.42;0.32;;;;;;;15.76;100.00;98502.78;5033306;28;20041;-41
2023/08/19 03:48:13;;;;;;;1.00;0.20;;;;;;;15.77;100.00;98511.94;5050877;28;20041;-40
2023/08/19 03:50:40;;;;;;;1.45;0.38;;;;;;;15.79;100.00;98487.94;5050752;28;20040;-41
2023/08/19 03:53:08;;;;;;;0.13;0.00;;;;;;;15.84;100.00;98520.13;5051340;28;20507;-42
2023/08/19 03:55:35;;;;;;;0.98;0.10;;;;;;;15.86;100.00;98514.88;5050029;28;20409;-40
2023/08/19 03:58:02;;;;;;;3.92;0.22;;;;;;;15.88;100.00;98529.22;5050837;28;20123;-41
2023/08/19 04:00:28;;;;;;;0.38;0.10;;;;;;;15.89;100.00;98530.75;5050122;28;20048;-41
2023/08/19 04:02:55;;;;;;;2.35;0.20;;;;;;;15.94;100.00;98552.56;5032888;28;20053;-41
2023/08/19 04:05:22;;;;;;;0.00;0.00;;;;;;;15.96;100.00;98552.94;5033406;28;20056;-41
2023/08/19 04:07:49;;;;;;;0.47;0.20;;;;;;;15.98;100.00;98556.09;5050745;28;20095;-41
2023/08/19 04:10:17;;;;;;;0.10;0.10;;;;;;;16.00;100.00;98559.22;5051293;28;20383;-42
2023/08/19 04:12:44;;;;;;;0.38;0.17;;;;;;;16.01;100.00;98569.16;5050570;28;20044;-41
2023/08/19 04:15:11;;;;;;;0.25;0.00;;;;;;;16.04;100.00;98576.69;5037487;28;20482;-40
2023/08/19 04:17:37;;;;;;;0.73;0.10;;;;;;;16.07;100.00;98578.56;5050608;28;20143;-41
2023/08/19 04:20:08;;;;;;;1.20;0.30;;;;;;;16.11;100.00;98587.66;5050610;28;20045;-41
2023/08/19 04:22:36;;;;;;;0.10;0.00;;;;;;;16.15;100.00;98595.97;5050616;28;20049;-41
2023/08/19 04:25:05;;;;;;;0.00;0.00;;;;;;;16.16;100.00;98609.47;5036880;28;20084;-42
2023/08/19 04:27:31;;;;;;;1.02;0.10;;;;;;;16.20;100.00;98615.00;5051063;28;20041;-41
2023/08/19 04:29:59;;;;;;;1.85;0.10;;;;;;;16.22;100.00;98615.34;5050649;28;20152;-41
2023/08/19 04:32:27;;;;;;;0.85;0.10;;;;;;;16.25;100.00;98634.81;5032750;28;20102;-41
2023/08/19 04:34:55;;;;;;;1.90;0.28;;;;;;;16.26;100.00;98628.00;5033126;28;20430;-41
2023/08/19 04:37:22;;;;;;;0.30;0.10;;;;;;;16.28;100.00;98645.09;5050584;28;20049;-41
2023/08/19 04:39:49;;;;;;;1.95;0.77;;;;;;;16.31;100.00;98662.97;5050542;28;20049;-41
2023/08/19 04:42:16;;;;;;;1.02;0.20;;;;;;;16.32;100.00;98654.19;5050295;28;20056;-41
2023/08/19 04:44:43;;;;;;;1.25;0.05;;;;;;;16.33;100.00;98678.09;5054346;28;20033;-47
2023/08/19 04:47:10;;;;;;;0.03;0.00;;;;;;;16.33;100.00;98675.31;5054432;28;20136;-41
2023/08/19 04:49:38;;;;;;;0.20;0.00;;;;;;;16.34;100.00;98688.03;5054163;28;20032;-42
2023/08/19 04:52:05;;;;;;;0.10;0.00;;;;;;;16.35;100.00;98686.84;5053869;28;20047;-41
2023/08/19 04:54:31;;;;;;;0.00;0.00;;;;;;;16.34;100.00;98698.41;5054426;28;20132;-41
2023/08/19 04:56:58;;;;;;;0.55;0.00;;;;;;;16.33;100.00;98728.38;5048611;28;20042;-41
2023/08/19 04:59:25;;;;;;;0.00;0.00;;;;;;;16.33;100.00;98720.00;5044311;28;20068;-40
2023/08/19 05:01:53;;;;;;;0.55;0.00;;;;;;;16.34;100.00;98737.50;5053997;28;20057;-41
2023/08/19 05:04:20;;;;;;;0.10;0.10;;;;;;;16.33;100.00;98739.53;5053923;28;20041;-41
2023/08/19 05:06:47;;;;;;;0.93;0.10;;;;;;;16.33;100.00;98750.72;5053696;28;20075;-41
2023/08/19 05:09:14;;;;;;;0.85;0.00;;;;;;;16.32;100.00;98760.31;5053821;28;20091;-41
2023/08/19 05:11:41;;;;;;;1.17;0.00;;;;;;;16.31;100.00;98767.09;5053693;28;20517;-41
2023/08/19 05:14:07;;;;;;;0.38;0.08;;;;;;;16.30;100.00;98770.31;5053719;28;20091;-41
2023/08/19 05:16:34;;;;;;;0.00;0.00;;;;;;;16.29;100.00;98789.09;5053388;28;20096;-43
2023/08/19 05:19:16;;;;;;;0.25;0.00;;;;;;;16.28;100.00;98809.06;5054185;28;20041;-41
2023/08/19 05:21:44;;;;;;;0.50;0.00;;;;;;;16.25;100.00;98805.13;5053359;28;20518;-41
2023/08/19 05:24:12;;;;;;;0.03;0.00;;;;;;;16.23;100.00;98824.31;5053475;28;20045;-45
2023/08/19 05:26:39;;;;;;;0.00;0.00;;;;;;;16.21;100.00;98823.94;5051719;28;20072;-41
2023/08/19 05:29:07;;;;;;;0.00;0.00;;;;;;;16.21;100.00;98859.47;5052999;28;20049;-41
2023/08/19 05:31:34;;;;;;;0.10;0.00;;;;;;;16.19;100.00;98851.53;5053305;28;20037;-42
2023/08/19 05:34:01;;;;;;;0.00;0.00;;;;;;;16.18;100.00;98866.69;5053482;28;20094;-42
2023/08/19 05:36:30;;;;;;;0.00;0.00;;;;;;;16.16;100.00;98874.72;5053829;28;20045;-41
2023/08/19 05:38:58;;;;;;;1.85;0.10;;;;;;;16.15;100.00;98867.53;5053014;28;20441;-41
2023/08/19 05:41:25;;;;;;;0.00;0.00;;;;;;;16.14;100.00;98879.94;5035638;28;20045;-41
2023/08/19 05:43:52;;;;;;;0.00;0.00;;;;;;;16.14;100.00;98893.09;5035047;28;20068;-42
2023/08/19 05:46:19;;;;;;;0.00;0.00;;;;;;;16.13;100.00;98903.47;5053232;28;20093;-42
2023/08/19 05:48:46;;;;;;;0.00;0.00;;;;;;;16.14;100.00;98893.91;5052992;28;20049;-41
2023/08/19 05:51:13;;;;;;;0.15;0.00;;;;;;;16.11;100.00;98911.50;5053041;28;20041;-44
2023/08/19 05:53:40;;;;;;;0.70;0.10;;;;;;;16.12;100.00;98917.88;5053175;28;20060;-42
2023/08/19 05:56:07;;;;;;;0.15;0.00;;;;;;;16.15;100.00;98942.16;5050794;28;20510;-42
2023/08/19 05:58:34;;;;;;;1.17;0.00;;;;;;;16.13;100.00;98948.16;5052260;28;20045;-41
2023/08/19 06:01:06;;;;;;;0.00;0.00;;;;;;;16.14;100.00;98952.53;5052697;28;20041;-41
2023/08/19 06:03:34;;;;;;;0.00;0.00;;;;;;;16.15;100.00;98964.50;5052643;28;20491;-43
2023/08/19 06:06:05;;;;;;;0.00;0.00;;;;;;;16.15;100.00;98964.50;5052883;28;20394;-43
2023/08/19 06:08:32;;;;;;;0.00;0.00;;;;;;;16.15;100.00;98976.44;5053095;28;20090;-46
2023/08/19 06:11:06;;;;;;;0.10;0.00;;;;;;;16.15;100.00;98984.81;5052769;28;20045;-42
2023/08/19 06:13:34;;;;;;;1.00;0.10;;;;;;;16.16;100.00;98989.19;5052316;28;20047;-42
2023/08/19 06:16:03;;;;;;;0.65;0.03;;;;;;;16.19;100.00;99002.31;5052729;28;20094;-41
2023/08/19 06:18:31;;;;;;;0.20;0.05;;;;;;;16.21;100.00;99013.81;5034598;28;20506;-42
2023/08/19 06:20:59;;;;;;;0.10;0.00;;;;;;;16.22;100.00;99020.22;5052366;28;20589;-42
2023/08/19 06:23:26;;;;;;;3.13;0.10;;;;;;;16.25;100.00;99024.94;5039463;28;20052;-42
2023/08/19 06:25:53;;;;;;;0.20;0.08;;;;;;;16.27;100.00;99040.06;5054716;28;20044;-41
2023/08/19 06:28:21;;;;;;;0.25;0.10;;;;;;;16.30;100.00;99053.19;5051827;28;20080;-42
2023/08/19 06:30:49;;;;;;;0.52;0.13;;;;;;;16.34;100.00;99048.31;5051934;28;20506;-44
2023/08/19 06:33:17;;;;;;;0.95;0.22;;;;;;;16.41;100.00;99053.75;5052132;28;20052;-41
2023/08/19 06:35:48;;;;;;;1.75;0.20;;;;;;;16.47;100.00;99072.84;5034797;28;20063;-43
2023/08/19 06:38:19;;;;;;;3.05;0.30;;;;;;;16.49;100.00;99081.59;5052204;28;20139;-41
2023/08/19 06:41:09;;;;;;;1.92;0.32;;;;;;;16.45;100.00;99082.44;5051898;28;20033;-40
2023/08/19 06:43:40;;;;;;;0.47;0.20;;;;;;;16.45;100.00;99082.44;5051129;28;20053;-42
2023/08/19 06:46:07;;;;;;;2.17;0.40;;;;;;;16.42;100.00;99107.63;5045902;28;20390;-42
2023/08/19 06:48:37;;;;;;;0.73;0.30;;;;;;;16.43;100.00;99112.00;5051641;28;20076;-42
2023/08/19 06:51:04;;;;;;;0.82;0.45;;;;;;;16.45;100.00;99115.16;5051573;28;20033;-42
2023/08/19 06:53:32;;;;;;;0.60;0.38;;;;;;;16.48;100.00;99124.69;5051360;28;20079;-43
2023/08/19 06:56:18;;;;;;;2.28;0.40;;;;;;;16.53;100.00;99121.44;5050253;28;20102;-42
2023/08/19 06:58:52;;;;;;;3.58;0.40;;;;;;;16.54;100.00;99123.03;5051343;28;20040;-42
2023/08/19 07:01:24;;;;;;;2.25;0.50;;;;;;;16.53;100.00;99118.66;5051598;28;20387;-42
2023/08/19 07:03:53;;;;;;;1.20;0.68;;;;;;;16.55;100.00;99133.00;5043357;28;20083;-41
2023/08/19 07:06:22;;;;;;;2.50;0.47;;;;;;;16.56;100.00;99140.16;5050715;28;20453;-42
2023/08/19 07:08:50;;;;;;;2.88;0.40;;;;;;;16.60;100.00;99147.25;5051216;28;20095;-41
2023/08/19 07:11:17;;;;;;;1.38;0.40;;;;;;;16.63;100.00;99156.81;5051380;28;20055;-41
2023/08/19 07:13:44;;;;;;;1.17;0.60;;;;;;;16.65;100.00;99168.38;5051229;28;20410;-41
2023/08/19 07:16:12;;;;;;;2.15;0.60;;;;;;;16.67;100.00;99177.91;5051534;28;20041;-40
2023/08/19 07:18:41;;;;;;;1.95;0.60;;;;;;;16.71;100.00;99189.00;5050366;28;20402;-41
2023/08/19 07:21:11;;;;;;;3.38;0.63;;;;;;;16.75;100.00;99195.34;5045162;28;20110;-42
2023/08/19 07:23:45;;;;;;;3.42;0.60;;;;;;;16.81;100.00;99182.47;5051495;28;20057;-43
2023/08/19 07:26:12;;;;;;;1.45;0.50;;;;;;;16.86;100.00;99218.31;5048929;28;20483;-41
2023/08/19 07:28:39;;;;;;;4.28;0.47;;;;;;;16.89;100.00;99229.44;5043611;28;20045;-42
2023/08/19 07:31:09;;;;;;;2.58;0.73;;;;;;;16.95;100.00;99218.56;5046488;28;20403;-42
2023/08/19 07:33:37;;;;;;;3.28;0.50;;;;;;;16.97;100.00;99246.91;5051718;28;20140;-42
2023/08/19 07:36:04;;;;;;;5.20;1.10;;;;;;;17.02;100.00;99252.78;5051180;28;20033;-43
2023/08/19 07:38:31;;;;;;;3.22;0.75;;;;;;;17.05;100.00;99253.94;5033719;28;20041;-42
2023/08/19 07:40:58;;;;;;;3.83;0.90;;;;;;;17.03;100.00;99273.16;5049612;28;20053;-42
2023/08/19 07:43:25;;;;;;;1.85;0.40;;;;;;;17.03;100.00;99267.56;5051199;28;20071;-43
2023/08/19 07:45:52;;;;;;;3.95;0.85;;;;;;;17.07;100.00;99301.84;5051007;28;20079;-43
2023/08/19 07:48:18;;;;;;;5.95;0.90;;;;;;;17.18;100.00;99318.47;5051224;28;20072;-43
2023/08/19 07:50:46;;;;;;;4.50;0.60;;;;;;;17.29;100.00;99333.84;5051436;28;20056;-42
2023/08/19 07:53:13;;;;;;;1.63;0.52;;;;;;;17.43;100.00;99330.81;5049362;28;20044;-43
2023/08/19 07:55:41;;;;;;;3.00;0.65;;;;;;;17.47;100.00;99320.34;5047579;28;20052;-44
2023/08/19 07:58:08;;;;;;;3.38;0.65;;;;;;;17.50;100.00;99336.28;5047364;28;20483;-43
2023/08/19 08:00:35;;;;;;;2.40;0.60;;;;;;;17.52;100.00;99347.88;5046978;28;20398;-40
2023/08/19 08:03:02;;;;;;;2.53;0.50;;;;;;;17.53;100.00;99362.66;5050687;28;20079;-42
2023/08/19 08:05:29;;;;;;;2.83;0.45;;;;;;;17.54;100.00;99348.25;5041117;28;20053;-42
2023/08/19 08:07:57;;;;;;;1.52;0.40;;;;;;;17.62;100.00;99369.31;5033751;28;20076;-42
2023/08/19 08:10:24;;;;;;;2.33;0.60;;;;;;;17.67;100.00;99384.00;5050986;28;20037;-42
2023/08/19 08:12:51;;;;;;;9.43;0.88;;;;;;;17.72;100.00;99386.31;5031153;28;20063;-42
2023/08/19 08:15:18;;;;;;;3.35;0.95;;;;;;;17.90;100.00;99381.19;5023897;28;20052;-42
2023/08/19 08:17:45;;;;;;;20.70;3.05;;;;;;;18.12;100.00;99396.41;5051287;28;20083;-42
2023/08/19 08:20:11;;;;;;;5.22;1.30;;;;;;;18.27;100.00;99401.31;5023940;28;20151;-45
2023/08/19 08:22:38;;;;;;;11.85;1.45;;;;;;;18.39;100.00;99397.09;5035763;28;20049;-46
2023/08/19 08:25:05;;;;;;;2.03;0.68;;;;;;;18.57;100.00;99419.97;5052022;28;20440;-45
2023/08/19 08:27:34;;;;;;;10.95;2.88;;;;;;;18.82;100.00;99423.03;5054458;28;20076;-45
2023/08/19 08:30:01;;;;;;;1.67;0.80;;;;;;;19.22;100.00;99425.81;5052638;28;20132;-46
2023/08/19 08:32:28;;;;;;;3.28;0.70;;;;;;;19.72;100.00;99434.66;5032713;28;20143;-46
2023/08/19 08:34:54;;;;;;;5.78;1.00;;;;;;;20.29;100.00;99450.88;5048110;28;20055;-46
2023/08/19 08:37:21;;;;;;;2.95;0.57;;;;;;;20.80;100.00;99453.88;5046776;28;20052;-48
2023/08/19 08:39:48;;;;;;;2.95;0.50;;;;;;;21.48;100.00;99476.00;5054151;28;20080;-47
2023/08/19 08:42:16;;;;;;;0.70;0.40;;;;;;;21.99;100.00;99477.59;5054731;28;20097;-47
2023/08/19 08:44:46;;;;;;;7.78;1.30;;;;;;;22.48;100.00;99479.97;5053452;28;20041;-53
2023/08/19 08:47:15;;;;;;;0.95;0.40;;;;;;;22.77;100.00;99494.66;5052228;28;20136;-46
2023/08/19 08:49:46;;;;;;;2.20;0.70;;;;;;;23.10;100.00;99501.50;5054202;28;20087;-46
2023/08/19 08:52:13;;;;;;;7.72;1.08;;;;;;;23.38;95.82;99503.25;5051538;28;20036;-46
2023/08/19 08:54:42;;;;;;;0.63;0.40;;;;;;;23.33;91.93;99515.13;5055144;28;20405;-45
2023/08/19 08:57:09;;;;;;;2.13;0.55;;;;;;;23.45;88.80;99522.78;5053741;28;20048;-51
2023/08/19 08:59:36;;;;;;;3.95;0.73;;;;;;;23.24;85.19;99526.38;5056322;28;20045;-47
2023/08/19 09:02:04;;;;;;;3.17;1.27;;;;;;;23.27;83.42;99533.91;5054032;28;20049;-46
2023/08/19 09:04:32;;;;;;;1.02;0.60;;;;;;;22.81;81.65;99543.28;5047016;28;20060;-46
2023/08/19 09:07:12;;;;;;;1.17;0.40;;;;;;;22.07;83.42;99537.34;5041153;28;20049;-45
2023/08/19 09:09:41;;;;;;;1.55;0.30;;;;;;;21.42;81.06;99557.41;5051218;28;20076;-46
2023/08/19 09:12:12;;;;;;;5.60;0.57;;;;;;;20.79;81.97;99545.94;5040164;28;20072;-48
2023/08/19 09:14:44;;;;;;;1.50;0.40;;;;;;;20.62;83.29;99555.66;5051485;28;20055;-47
2023/08/19 09:17:12;;;;;;;6.95;1.33;;;;;;;20.45;82.85;99562.50;5045079;28;20045;-45
2023/08/19 09:19:41;;;;;;;4.70;0.50;;;;;;;20.37;83.02;99566.72;5057726;28;20040;-50
2023/08/19 09:22:16;;;;;;;3.95;0.40;;;;;;;20.62;84.08;99566.91;5052932;28;20123;-45
2023/08/19 09:24:44;;;;;;;2.15;0.43;;;;;;;20.91;82.32;99578.19;5050362;28;20049;-46
2023/08/19 09:27:11;;;;;;;3.85;0.40;;;;;;;20.88;81.14;99574.22;5052510;28;20088;-46
2023/08/19 09:29:51;;;;;;;1.38;0.47;;;;;;;21.04;81.85;99568.56;5049152;28;20453;-49
2023/08/19 09:32:33;;;;;;;4.43;0.82;;;;;;;21.63;81.14;99584.19;5051871;28;20045;-48
2023/08/19 09:35:03;;;;;;;5.53;0.60;;;;;;;22.50;77.53;99585.44;5049273;28;20512;-45
2023/08/19 09:37:31;;;;;;;3.95;0.50;;;;;;;23.04;75.79;99585.19;5049630;28;20433;-47
2023/08/19 09:39:59;;;;;;;6.00;0.50;;;;;;;;;;5050771;28;20514;-48
2023/08/19 09:42:28;;;;;;;3.60;0.57;;;;;;;24.35;71.94;99589.47;5052910;28;20045;-47
2023/08/19 09:44:56;;;;;;;0.70;0.40;;;;;;;24.45;69.80;99607.25;5035388;28;20049;-45
2023/08/19 09:47:23;;;;;;;1.80;0.43;;;;;;;24.27;68.92;99607.19;5048902;28;20087;-45
2023/08/19 09:49:52;;;;;;;2.10;0.28;;;;;;;23.52;69.60;99610.06;5047161;28;20041;-45
2023/08/19 09:52:18;;;;;;;3.47;0.40;;;;;;;22.67;70.33;99609.47;5046018;28;20051;-45
2023/08/19 09:54:52;;;;;;;0.88;0.30;;;;;;;21.99;72.02;99617.72;5052317;28;20095;-45
2023/08/19 09:57:33;;;;;;;1.27;0.40;;;;;;;21.66;73.51;99622.69;5050244;28;20060;-45
2023/08/19 10:00:04;;;;;;;2.30;0.57;;;;;;;21.50;73.29;99628.44;5049957;28;20049;-47
2023/08/19 10:02:32;;;;;;;2.85;0.50;;;;;;;21.76;73.32;99633.66;5047073;28;20041;-45
2023/08/19 10:05:00;;;;;;;1.52;0.50;;;;;;;22.38;70.93;99629.34;5046024;28;20051;-49
2023/08/19 10:07:32;;;;;;;1.10;0.50;;;;;;;23.21;69.38;99643.09;5048708;28;20051;-46
2023/08/19 10:10:01;;;;;;;;;;;;;;;23.67;68.91;99641.41;5048717;28;20049;-45
2023/08/19 10:12:38;;;;;;;1.98;0.43;;;;;;;24.34;67.41;99655.00;5050685;28;19925;-48
2023/08/19 10:15:08;;;;;;;2.65;0.52;;;;;;;24.83;65.30;99659.44;5031955;28;20442;-46
2023/08/19 10:17:39;;;;;;;1.50;0.60;;;;;;;25.07;64.29;99664.53;5034573;28;20056;-45
2023/08/19 10:20:11;;;;;;;1.35;0.30;;;;;;;25.22;64.17;99671.16;5032563;28;20037;-45
2023/08/19 10:22:44;;;;;;;3.75;0.30;;;;;;;25.40;63.09;99682.47;5048159;28;20122;-42
2023/08/19 10:25:14;;;;;;;0.95;0.30;;;;;;;25.35;62.59;99677.44;5050689;28;20068;-43
2023/08/19 10:27:44;;;;;;;4.15;0.32;;;;;;;25.30;62.45;99678.88;5059257;28;20410;-42
2023/08/19 10:30:22;;;;;;;0.68;0.40;;;;;;;25.27;61.88;99684.69;5050718;28;20049;-43
2023/08/19 10:32:50;;;;;;;3.40;1.30;;;;;;;25.33;60.88;99685.63;5051604;28;20055;-45
2023/08/19 10:35:17;;;;;;;1.65;0.40;;;;;;;24.93;60.39;99697.06;5052331;28;20045;-43
2023/08/19 10:37:51;;;;;;;0.65;0.30;;;;;;;24.29;61.65;99698.03;5033925;28;20041;-43
2023/08/19 10:40:22;;;;;;;3.28;0.52;;;;;;;23.72;63.06;99691.72;5051500;28;20445;-44
2023/08/19 10:43:00;;;;;;;0.70;0.40;;;;;;;23.61;64.19;99702.59;5051283;28;20068;-43
2023/08/19 10:45:32;;;;;;;5.57;1.00;;;;;;;23.98;63.17;99693.13;5033130;28;20049;-43
2023/08/19 10:47:59;;;;;;;0.85;0.35;;;;;;;24.03;62.12;99722.84;5034346;28;20048;-44
2023/08/19 10:50:26;;;;;;;2.75;0.30;;;;;;;23.69;62.76;99714.44;5049479;28;20045;-43
2023/08/19 10:53:00;;;;;;;1.77;0.45;;;;;;;23.36;63.92;99720.41;5040412;28;20392;-44
2023/08/19 10:55:27;;;;;;;2.10;0.65;;;;;;;23.24;64.54;99717.63;5051640;28;20041;-42
2023/08/19 10:57:56;;;;;;;4.28;0.45;;;;;;;23.07;64.80;99730.31;5052472;28;20143;-42
2023/08/19 11:00:30;;;;;;;1.00;0.30;;;;;;;23.03;65.36;99716.31;5051456;28;20087;-43
2023/08/19 11:02:57;;;;;;;3.03;0.35;;;;;;;22.98;65.63;99728.19;5049709;28;20136;-42
2023/08/19 11:05:26;;;;;;;2.33;0.73;;;;;;;22.92;65.56;99735.66;5051374;28;20041;-42
2023/08/19 11:07:54;;;;;;;2.70;0.50;;;;;;;22.86;66.18;99738.25;5051602;28;20120;-42
2023/08/19 11:10:22;;;;;;;4.15;0.50;;;;;;;22.75;66.77;99737.00;5051510;28;20045;-42
2023/08/19 11:12:49;;;;;;;1.33;0.40;;;;;;;22.62;66.73;99761.56;5045931;28;20052;-42
2023/08/19 11:15:24;;;;;;;2.30;0.50;;;;;;;22.53;67.14;99748.13;5051449;28;20041;-42
2023/08/19 11:17:51;;;;;;;2.28;0.88;;;;;;;22.47;67.22;99766.09;5051475;28;20379;-42
2023/08/19 11:20:19;;;;;;;2.03;0.40;;;;;;;22.36;67.50;99766.41;5033218;28;20052;-43
2023/08/19 11:22:48;;;;;;;0.80;0.32;;;;;;;22.32;67.46;99765.72;5051045;28;20487;-43
2023/08/19 11:25:16;;;;;;;0.73;0.32;;;;;;;22.28;68.16;99788.41;5051292;28;20077;-42
2023/08/19 11:27:43;;;;;;;4.10;0.43;;;;;;;22.22;68.49;99775.28;5051201;28;20048;-42
2023/08/19 11:30:11;;;;;;;0.60;0.30;;;;;;;22.24;68.54;99779.22;5051654;28;20053;-43
2023/08/19 11:32:38;;;;;;;2.03;0.50;;;;;;;22.15;67.95;99790.38;5051706;28;20056;-42
2023/08/19 11:35:06;;;;;;;0.52;0.47;;;;;;;22.04;68.13;99789.91;5030440;28;20051;-46
2023/08/19 11:37:33;;;;;;;0.40;0.20;;;;;;;21.95;68.14;99806.66;5045850;28;20044;-43
2023/08/19 11:40:05;;;;;;;4.47;0.43;;;;;;;21.95;68.66;99798.19;5046469;28;20053;-42